sensor_id;sensor_type;location;lat;lon;timestamp;P1;durP1;ratioP1;P2;durP2;ratioP2
9076;SDS011;4574;51.072;17.174;2023-04-22T00:01:41;18.00;;;10.43;;
9076;SDS011;4574;51.072;17.174;2023-04-22T00:04:12;17.73;;;9.50;;
9076;SDS011;4574;51.072;17.174;2023-04-22T00:06:44;15.33;;;9.27;;
9076;SDS011;4574;51.072;17.174;2023-04-22T00:09:13;21.43;;;12.30;;
9076;SDS011;4574;51.072;17.174;2023-04-22T00:11:41;18.13;;;10.90;;
9076;SDS011;4574;51.072;17.174;2023-04-22T00:14:10;19.40;;;10.77;;
9076;SDS011;4574;51.072;17.174;2023-04-22T00:16:39;19.03;;;10.50;;
9076;SDS011;4574;51.072;17.174;2023-04-22T00:19:07;19.40;;;11.93;;
9076;SDS011;4574;51.072;17.174;2023-04-22T00:21:37;19.70;;;10.60;;
9076;SDS011;4574;51.072;17.174;2023-04-22T00:24:06;21.53;;;11.13;;
9076;SDS011;4574;51.072;17.174;2023-04-22T00:26:39;20.73;;;10.93;;
9076;SDS011;4574;51.072;17.174;2023-04-22T00:29:08;17.57;;;10.30;;
9076;SDS011;4574;51.072;17.174;2023-04-22T00:31:36;19.23;;;11.57;;
9076;SDS011;4574;51.072;17.174;2023-04-22T00:34:05;18.73;;;11.30;;
9076;SDS011;4574;51.072;17.174;2023-04-22T00:36:34;17.93;;;10.60;;
9076;SDS011;4574;51.072;17.174;2023-04-22T00:39:04;18.93;;;10.37;;
9076;SDS011;4574;51.072;17.174;2023-04-22T00:41:33;17.47;;;10.37;;
9076;SDS011;4574;51.072;17.174;2023-04-22T00:44:02;15.40;;;9.97;;
9076;SDS011;4574;51.072;17.174;2023-04-22T00:46:31;16.97;;;10.77;;
9076;SDS011;4574;51.072;17.174;2023-04-22T00:49:01;18.20;;;10.73;;
9076;SDS011;4574;51.072;17.174;2023-04-22T00:51:29;16.53;;;10.17;;
9076;SDS011;4574;51.072;17.174;2023-04-22T00:53:58;17.63;;;10.33;;
9076;SDS011;4574;51.072;17.174;2023-04-22T00:56:29;18.43;;;10.47;;
9076;SDS011;4574;51.072;17.174;2023-04-22T00:59:01;15.03;;;10.20;;
9076;SDS011;4574;51.072;17.174;2023-04-22T01:01:30;15.97;;;9.90;;
9076;SDS011;4574;51.072;17.174;2023-04-22T01:04:00;14.17;;;10.00;;
9076;SDS011;4574;51.072;17.174;2023-04-22T01:06:30;15.70;;;9.63;;
9076;SDS011;4574;51.072;17.174;2023-04-22T01:08:59;16.13;;;10.13;;
9076;SDS011;4574;51.072;17.174;2023-04-22T01:11:28;14.00;;;9.93;;
9076;SDS011;4574;51.072;17.174;2023-04-22T01:13:57;12.47;;;9.13;;
9076;SDS011;4574;51.072;17.174;2023-04-22T01:16:26;13.97;;;10.10;;
9076;SDS011;4574;51.072;17.174;2023-04-22T01:18:56;12.47;;;9.10;;
9076;SDS011;4574;51.072;17.174;2023-04-22T01:21:25;14.07;;;9.83;;
9076;SDS011;4574;51.072;17.174;2023-04-22T01:23:56;15.83;;;9.33;;
9076;SDS011;4574;51.072;17.174;2023-04-22T01:26:25;16.00;;;9.77;;
9076;SDS011;4574;51.072;17.174;2023-04-22T01:28:53;13.37;;;9.57;;
9076;SDS011;4574;51.072;17.174;2023-04-22T01:31:22;16.07;;;10.00;;
9076;SDS011;4574;51.072;17.174;2023-04-22T01:33:51;17.77;;;10.83;;
9076;SDS011;4574;51.072;17.174;2023-04-22T01:36:20;14.60;;;10.50;;
9076;SDS011;4574;51.072;17.174;2023-04-22T01:38:49;16.13;;;10.40;;
9076;SDS011;4574;51.072;17.174;2023-04-22T01:41:19;14.07;;;9.87;;
9076;SDS011;4574;51.072;17.174;2023-04-22T01:43:48;16.87;;;10.03;;
9076;SDS011;4574;51.072;17.174;2023-04-22T01:46:17;16.77;;;10.67;;
9076;SDS011;4574;51.072;17.174;2023-04-22T01:48:46;15.53;;;10.77;;
9076;SDS011;4574;51.072;17.174;2023-04-22T01:51:17;15.77;;;10.50;;
9076;SDS011;4574;51.072;17.174;2023-04-22T01:53:47;16.37;;;10.10;;
9076;SDS011;4574;51.072;17.174;2023-04-22T01:56:16;14.63;;;10.37;;
9076;SDS011;4574;51.072;17.174;2023-04-22T01:58:46;16.63;;;10.93;;
9076;SDS011;4574;51.072;17.174;2023-04-22T02:01:15;28.40;;;13.83;;
9076;SDS011;4574;51.072;17.174;2023-04-22T02:03:44;47.93;;;17.60;;
9076;SDS011;4574;51.072;17.174;2023-04-22T02:06:13;42.83;;;16.90;;
9076;SDS011;4574;51.072;17.174;2023-04-22T02:08:44;36.37;;;13.70;;
9076;SDS011;4574;51.072;17.174;2023-04-22T02:11:13;24.93;;;11.87;;
9076;SDS011;4574;51.072;17.174;2023-04-22T02:13:41;21.37;;;11.40;;
9076;SDS011;4574;51.072;17.174;2023-04-22T02:16:11;18.97;;;10.53;;
9076;SDS011;4574;51.072;17.174;2023-04-22T02:18:40;22.87;;;11.93;;
9076;SDS011;4574;51.072;17.174;2023-04-22T02:21:09;54.77;;;20.20;;
9076;SDS011;4574;51.072;17.174;2023-04-22T02:23:37;68.57;;;23.63;;
9076;SDS011;4574;51.072;17.174;2023-04-22T02:26:07;58.73;;;22.80;;
9076;SDS011;4574;51.072;17.174;2023-04-22T02:28:35;57.83;;;23.63;;
9076;SDS011;4574;51.072;17.174;2023-04-22T02:31:04;54.87;;;23.33;;
9076;SDS011;4574;51.072;17.174;2023-04-22T02:33:34;66.13;;;23.00;;
9076;SDS011;4574;51.072;17.174;2023-04-22T02:36:03;68.00;;;25.03;;
9076;SDS011;4574;51.072;17.174;2023-04-22T02:38:31;62.80;;;23.50;;
9076;SDS011;4574;51.072;17.174;2023-04-22T02:41:00;61.87;;;24.33;;
9076;SDS011;4574;51.072;17.174;2023-04-22T02:43:32;65.37;;;24.17;;
9076;SDS011;4574;51.072;17.174;2023-04-22T02:46:00;76.90;;;25.13;;
9076;SDS011;4574;51.072;17.174;2023-04-22T02:48:29;51.87;;;21.17;;
9076;SDS011;4574;51.072;17.174;2023-04-22T02:50:59;46.73;;;18.93;;
9076;SDS011;4574;51.072;17.174;2023-04-22T02:53:28;32.20;;;16.30;;
9076;SDS011;4574;51.072;17.174;2023-04-22T02:55:57;31.00;;;15.17;;
9076;SDS011;4574;51.072;17.174;2023-04-22T02:58:25;27.63;;;14.80;;
9076;SDS011;4574;51.072;17.174;2023-04-22T03:00:54;24.43;;;14.03;;
9076;SDS011;4574;51.072;17.174;2023-04-22T03:03:23;25.77;;;13.47;;
9076;SDS011;4574;51.072;17.174;2023-04-22T03:05:53;21.77;;;13.47;;
9076;SDS011;4574;51.072;17.174;2023-04-22T03:08:24;21.10;;;13.73;;
9076;SDS011;4574;51.072;17.174;2023-04-22T03:10:52;24.93;;;13.33;;
9076;SDS011;4574;51.072;17.174;2023-04-22T03:13:21;22.77;;;13.60;;
9076;SDS011;4574;51.072;17.174;2023-04-22T03:15:49;20.23;;;13.50;;
9076;SDS011;4574;51.072;17.174;2023-04-22T03:18:18;22.37;;;12.97;;
9076;SDS011;4574;51.072;17.174;2023-04-22T03:20:46;20.57;;;13.07;;
9076;SDS011;4574;51.072;17.174;2023-04-22T03:23:16;22.43;;;13.23;;
9076;SDS011;4574;51.072;17.174;2023-04-22T03:25:46;24.10;;;13.77;;
9076;SDS011;4574;51.072;17.174;2023-04-22T03:28:14;21.13;;;12.80;;
9076;SDS011;4574;51.072;17.174;2023-04-22T03:30:43;21.10;;;12.17;;
9076;SDS011;4574;51.072;17.174;2023-04-22T03:33:12;27.30;;;13.43;;
9076;SDS011;4574;51.072;17.174;2023-04-22T03:35:41;16.70;;;11.97;;
9076;SDS011;4574;51.072;17.174;2023-04-22T03:38:10;18.80;;;12.03;;
9076;SDS011;4574;51.072;17.174;2023-04-22T03:40:38;20.77;;;13.20;;
9076;SDS011;4574;51.072;17.174;2023-04-22T03:43:09;21.53;;;12.20;;
9076;SDS011;4574;51.072;17.174;2023-04-22T03:45:37;17.53;;;11.77;;
9076;SDS011;4574;51.072;17.174;2023-04-22T03:48:06;19.57;;;11.50;;
9076;SDS011;4574;51.072;17.174;2023-04-22T03:50:35;18.80;;;12.33;;
9076;SDS011;4574;51.072;17.174;2023-04-22T03:53:03;17.77;;;11.50;;
9076;SDS011;4574;51.072;17.174;2023-04-22T03:55:32;19.10;;;12.13;;
9076;SDS011;4574;51.072;17.174;2023-04-22T03:58:01;18.93;;;12.30;;
9076;SDS011;4574;51.072;17.174;2023-04-22T04:00:31;19.90;;;12.87;;
9076;SDS011;4574;51.072;17.174;2023-04-22T04:03:00;17.47;;;11.63;;
9076;SDS011;4574;51.072;17.174;2023-04-22T04:05:29;22.63;;;12.03;;
9076;SDS011;4574;51.072;17.174;2023-04-22T04:07:58;26.10;;;13.60;;
9076;SDS011;4574;51.072;17.174;2023-04-22T04:10:26;20.93;;;12.23;;
9076;SDS011;4574;51.072;17.174;2023-04-22T04:12:55;21.37;;;12.00;;
9076;SDS011;4574;51.072;17.174;2023-04-22T04:15:24;20.83;;;13.13;;
9076;SDS011;4574;51.072;17.174;2023-04-22T04:17:54;24.87;;;13.00;;
9076;SDS011;4574;51.072;17.174;2023-04-22T04:20:23;20.33;;;12.20;;
9076;SDS011;4574;51.072;17.174;2023-04-22T04:22:52;21.03;;;12.43;;
9076;SDS011;4574;51.072;17.174;2023-04-22T04:25:20;20.90;;;12.23;;
9076;SDS011;4574;51.072;17.174;2023-04-22T04:27:49;18.50;;;11.87;;
9076;SDS011;4574;51.072;17.174;2023-04-22T04:30:18;19.80;;;11.60;;
9076;SDS011;4574;51.072;17.174;2023-04-22T04:32:49;18.97;;;12.27;;
9076;SDS011;4574;51.072;17.174;2023-04-22T04:35:19;23.87;;;12.47;;
9076;SDS011;4574;51.072;17.174;2023-04-22T04:37:49;19.87;;;11.97;;
9076;SDS011;4574;51.072;17.174;2023-04-22T04:40:19;19.93;;;11.50;;
9076;SDS011;4574;51.072;17.174;2023-04-22T04:42:49;21.30;;;12.20;;
9076;SDS011;4574;51.072;17.174;2023-04-22T04:45:18;18.27;;;12.20;;
9076;SDS011;4574;51.072;17.174;2023-04-22T04:47:48;17.30;;;11.37;;
9076;SDS011;4574;51.072;17.174;2023-04-22T04:50:19;20.57;;;12.80;;
9076;SDS011;4574;51.072;17.174;2023-04-22T04:52:49;16.37;;;12.33;;
9076;SDS011;4574;51.072;17.174;2023-04-22T04:55:18;20.30;;;12.90;;
9076;SDS011;4574;51.072;17.174;2023-04-22T04:57:47;20.50;;;13.20;;
9076;SDS011;4574;51.072;17.174;2023-04-22T05:00:16;20.57;;;12.97;;
9076;SDS011;4574;51.072;17.174;2023-04-22T05:02:44;18.87;;;12.90;;
9076;SDS011;4574;51.072;17.174;2023-04-22T05:05:13;19.77;;;11.90;;
9076;SDS011;4574;51.072;17.174;2023-04-22T05:07:43;16.23;;;12.10;;
9076;SDS011;4574;51.072;17.174;2023-04-22T05:10:12;15.17;;;11.27;;
9076;SDS011;4574;51.072;17.174;2023-04-22T05:12:40;17.10;;;11.67;;
9076;SDS011;4574;51.072;17.174;2023-04-22T05:15:10;17.63;;;12.10;;
9076;SDS011;4574;51.072;17.174;2023-04-22T05:17:38;16.83;;;11.53;;
9076;SDS011;4574;51.072;17.174;2023-04-22T05:20:07;16.90;;;10.50;;
9076;SDS011;4574;51.072;17.174;2023-04-22T05:22:36;14.70;;;11.07;;
9076;SDS011;4574;51.072;17.174;2023-04-22T05:25:09;14.90;;;10.50;;
9076;SDS011;4574;51.072;17.174;2023-04-22T05:27:37;14.10;;;10.20;;
9076;SDS011;4574;51.072;17.174;2023-04-22T05:30:08;15.47;;;10.97;;
9076;SDS011;4574;51.072;17.174;2023-04-22T05:32:37;17.37;;;11.43;;
9076;SDS011;4574;51.072;17.174;2023-04-22T05:35:06;12.93;;;9.10;;
9076;SDS011;4574;51.072;17.174;2023-04-22T05:37:35;15.13;;;10.00;;
9076;SDS011;4574;51.072;17.174;2023-04-22T05:40:04;17.23;;;9.40;;
9076;SDS011;4574;51.072;17.174;2023-04-22T05:42:37;16.63;;;10.73;;
9076;SDS011;4574;51.072;17.174;2023-04-22T05:45:07;18.33;;;10.20;;
9076;SDS011;4574;51.072;17.174;2023-04-22T05:47:36;16.13;;;11.10;;
9076;SDS011;4574;51.072;17.174;2023-04-22T05:50:05;18.40;;;10.33;;
9076;SDS011;4574;51.072;17.174;2023-04-22T05:52:34;13.63;;;9.23;;
9076;SDS011;4574;51.072;17.174;2023-04-22T05:55:03;16.17;;;11.40;;
9076;SDS011;4574;51.072;17.174;2023-04-22T05:57:32;20.23;;;11.00;;
9076;SDS011;4574;51.072;17.174;2023-04-22T06:00:03;17.63;;;11.50;;
9076;SDS011;4574;51.072;17.174;2023-04-22T06:02:32;16.63;;;9.80;;
9076;SDS011;4574;51.072;17.174;2023-04-22T06:05:01;19.03;;;9.33;;
9076;SDS011;4574;51.072;17.174;2023-04-22T06:07:31;15.97;;;9.40;;
9076;SDS011;4574;51.072;17.174;2023-04-22T06:09:59;13.07;;;9.37;;
9076;SDS011;4574;51.072;17.174;2023-04-22T06:12:47;15.10;;;9.23;;
9076;SDS011;4574;51.072;17.174;2023-04-22T06:15:17;15.70;;;8.73;;
9076;SDS011;4574;51.072;17.174;2023-04-22T06:17:47;14.77;;;9.43;;
9076;SDS011;4574;51.072;17.174;2023-04-22T06:20:15;12.43;;;8.80;;
9076;SDS011;4574;51.072;17.174;2023-04-22T06:22:44;14.33;;;9.43;;
9076;SDS011;4574;51.072;17.174;2023-04-22T06:25:13;11.83;;;9.17;;
9076;SDS011;4574;51.072;17.174;2023-04-22T06:27:41;18.30;;;9.93;;
9076;SDS011;4574;51.072;17.174;2023-04-22T06:30:10;16.37;;;10.27;;
9076;SDS011;4574;51.072;17.174;2023-04-22T06:32:41;16.03;;;9.87;;
9076;SDS011;4574;51.072;17.174;2023-04-22T06:35:09;14.13;;;9.67;;
9076;SDS011;4574;51.072;17.174;2023-04-22T06:37:38;16.03;;;9.60;;
9076;SDS011;4574;51.072;17.174;2023-04-22T06:40:07;14.80;;;8.97;;
9076;SDS011;4574;51.072;17.174;2023-04-22T06:42:36;14.63;;;9.30;;
9076;SDS011;4574;51.072;17.174;2023-04-22T06:45:05;16.07;;;9.17;;
9076;SDS011;4574;51.072;17.174;2023-04-22T06:47:38;14.77;;;8.83;;
9076;SDS011;4574;51.072;17.174;2023-04-22T06:50:09;12.93;;;8.00;;
9076;SDS011;4574;51.072;17.174;2023-04-22T06:52:39;17.70;;;10.77;;
9076;SDS011;4574;51.072;17.174;2023-04-22T06:55:07;11.70;;;8.33;;
9076;SDS011;4574;51.072;17.174;2023-04-22T06:57:36;12.47;;;8.90;;
9076;SDS011;4574;51.072;17.174;2023-04-22T07:00:05;11.70;;;8.67;;
9076;SDS011;4574;51.072;17.174;2023-04-22T07:02:35;88.03;;;41.53;;
9076;SDS011;4574;51.072;17.174;2023-04-22T07:05:04;204.50;;;80.50;;
9076;SDS011;4574;51.072;17.174;2023-04-22T07:07:34;17.70;;;9.93;;
9076;SDS011;4574;51.072;17.174;2023-04-22T07:10:03;13.57;;;8.60;;
9076;SDS011;4574;51.072;17.174;2023-04-22T07:12:32;12.43;;;7.87;;
9076;SDS011;4574;51.072;17.174;2023-04-22T07:15:00;14.07;;;8.33;;
9076;SDS011;4574;51.072;17.174;2023-04-22T07:17:29;12.53;;;7.77;;
9076;SDS011;4574;51.072;17.174;2023-04-22T07:19:57;10.67;;;7.53;;
9076;SDS011;4574;51.072;17.174;2023-04-22T07:22:26;14.50;;;7.10;;
9076;SDS011;4574;51.072;17.174;2023-04-22T07:24:56;10.73;;;7.17;;
9076;SDS011;4574;51.072;17.174;2023-04-22T07:27:25;12.90;;;7.60;;
9076;SDS011;4574;51.072;17.174;2023-04-22T07:29:54;12.30;;;7.53;;
9076;SDS011;4574;51.072;17.174;2023-04-22T07:32:22;13.20;;;8.77;;
9076;SDS011;4574;51.072;17.174;2023-04-22T07:34:51;13.10;;;8.23;;
9076;SDS011;4574;51.072;17.174;2023-04-22T07:37:20;11.27;;;8.33;;
9076;SDS011;4574;51.072;17.174;2023-04-22T07:39:49;10.00;;;7.87;;
9076;SDS011;4574;51.072;17.174;2023-04-22T07:42:19;12.70;;;7.57;;
9076;SDS011;4574;51.072;17.174;2023-04-22T07:44:47;12.90;;;7.80;;
9076;SDS011;4574;51.072;17.174;2023-04-22T07:47:15;11.63;;;8.70;;
9076;SDS011;4574;51.072;17.174;2023-04-22T07:49:44;15.40;;;8.67;;
9076;SDS011;4574;51.072;17.174;2023-04-22T07:52:12;11.53;;;8.57;;
9076;SDS011;4574;51.072;17.174;2023-04-22T07:54:41;13.57;;;8.67;;
9076;SDS011;4574;51.072;17.174;2023-04-22T07:57:09;12.50;;;8.90;;
9076;SDS011;4574;51.072;17.174;2023-04-22T07:59:39;12.87;;;8.83;;
9076;SDS011;4574;51.072;17.174;2023-04-22T08:02:08;12.70;;;8.50;;
9076;SDS011;4574;51.072;17.174;2023-04-22T08:04:37;11.27;;;8.80;;
9076;SDS011;4574;51.072;17.174;2023-04-22T08:07:05;13.07;;;8.33;;
9076;SDS011;4574;51.072;17.174;2023-04-22T08:09:54;11.67;;;9.13;;
9076;SDS011;4574;51.072;17.174;2023-04-22T08:12:23;14.43;;;8.73;;
9076;SDS011;4574;51.072;17.174;2023-04-22T08:14:53;11.27;;;7.80;;
9076;SDS011;4574;51.072;17.174;2023-04-22T08:17:23;13.43;;;8.40;;
9076;SDS011;4574;51.072;17.174;2023-04-22T08:19:52;12.67;;;8.63;;
9076;SDS011;4574;51.072;17.174;2023-04-22T08:22:20;14.00;;;8.40;;
9076;SDS011;4574;51.072;17.174;2023-04-22T08:24:49;14.77;;;8.83;;
9076;SDS011;4574;51.072;17.174;2023-04-22T08:27:18;11.93;;;8.40;;
9076;SDS011;4574;51.072;17.174;2023-04-22T08:29:48;11.30;;;8.17;;
9076;SDS011;4574;51.072;17.174;2023-04-22T08:32:18;9.17;;;6.47;;
9076;SDS011;4574;51.072;17.174;2023-04-22T08:34:48;10.20;;;6.83;;
9076;SDS011;4574;51.072;17.174;2023-04-22T08:37:19;11.77;;;6.63;;
9076;SDS011;4574;51.072;17.174;2023-04-22T08:39:48;10.17;;;6.17;;
9076;SDS011;4574;51.072;17.174;2023-04-22T08:42:16;7.73;;;5.23;;
9076;SDS011;4574;51.072;17.174;2023-04-22T08:44:48;9.43;;;6.03;;
9076;SDS011;4574;51.072;17.174;2023-04-22T08:47:19;7.77;;;5.60;;
9076;SDS011;4574;51.072;17.174;2023-04-22T08:49:48;10.27;;;6.43;;
9076;SDS011;4574;51.072;17.174;2023-04-22T08:52:20;8.47;;;5.67;;
9076;SDS011;4574;51.072;17.174;2023-04-22T08:54:49;10.40;;;6.67;;
9076;SDS011;4574;51.072;17.174;2023-04-22T08:57:21;9.27;;;6.13;;
9076;SDS011;4574;51.072;17.174;2023-04-22T08:59:50;8.47;;;6.07;;
9076;SDS011;4574;51.072;17.174;2023-04-22T09:02:22;7.63;;;6.13;;
9076;SDS011;4574;51.072;17.174;2023-04-22T09:04:52;10.67;;;6.43;;
9076;SDS011;4574;51.072;17.174;2023-04-22T09:07:21;10.07;;;5.67;;
9076;SDS011;4574;51.072;17.174;2023-04-22T09:09:51;8.47;;;6.03;;
9076;SDS011;4574;51.072;17.174;2023-04-22T09:12:21;8.40;;;6.47;;
9076;SDS011;4574;51.072;17.174;2023-04-22T09:14:50;7.27;;;5.90;;
9076;SDS011;4574;51.072;17.174;2023-04-22T09:17:29;5.40;;;4.00;;
9076;SDS011;4574;51.072;17.174;2023-04-22T09:19:59;7.87;;;4.57;;
9076;SDS011;4574;51.072;17.174;2023-04-22T09:22:35;9.30;;;5.77;;
9076;SDS011;4574;51.072;17.174;2023-04-22T09:25:13;8.13;;;5.70;;
9076;SDS011;4574;51.072;17.174;2023-04-22T09:27:46;10.23;;;5.60;;
9076;SDS011;4574;51.072;17.174;2023-04-22T09:30:16;7.47;;;5.07;;
9076;SDS011;4574;51.072;17.174;2023-04-22T09:32:54;9.03;;;5.17;;
9076;SDS011;4574;51.072;17.174;2023-04-22T09:35:27;6.20;;;4.53;;
9076;SDS011;4574;51.072;17.174;2023-04-22T09:37:56;9.37;;;6.17;;
9076;SDS011;4574;51.072;17.174;2023-04-22T09:40:26;9.20;;;5.43;;
9076;SDS011;4574;51.072;17.174;2023-04-22T09:42:56;9.73;;;5.77;;
9076;SDS011;4574;51.072;17.174;2023-04-22T09:45:28;19.83;;;8.43;;
9076;SDS011;4574;51.072;17.174;2023-04-22T09:48:00;10.27;;;5.90;;
9076;SDS011;4574;51.072;17.174;2023-04-22T09:50:32;7.23;;;4.80;;
9076;SDS011;4574;51.072;17.174;2023-04-22T09:53:01;8.13;;;5.53;;
9076;SDS011;4574;51.072;17.174;2023-04-22T09:55:31;5.13;;;4.00;;
9076;SDS011;4574;51.072;17.174;2023-04-22T09:58:04;13.20;;;6.60;;
9076;SDS011;4574;51.072;17.174;2023-04-22T10:00:34;6.93;;;4.07;;
9076;SDS011;4574;51.072;17.174;2023-04-22T10:03:08;11.93;;;6.50;;
9076;SDS011;4574;51.072;17.174;2023-04-22T10:05:37;8.57;;;4.93;;
9076;SDS011;4574;51.072;17.174;2023-04-22T10:08:07;7.33;;;4.07;;
9076;SDS011;4574;51.072;17.174;2023-04-22T10:10:37;7.10;;;4.63;;
9076;SDS011;4574;51.072;17.174;2023-04-22T10:13:06;5.27;;;4.00;;
9076;SDS011;4574;51.072;17.174;2023-04-22T10:15:36;14.97;;;9.70;;
9076;SDS011;4574;51.072;17.174;2023-04-22T10:18:09;6.13;;;4.47;;
9076;SDS011;4574;51.072;17.174;2023-04-22T10:20:41;6.30;;;4.87;;
9076;SDS011;4574;51.072;17.174;2023-04-22T10:23:11;5.53;;;3.77;;
9076;SDS011;4574;51.072;17.174;2023-04-22T10:25:41;4.30;;;3.67;;
9076;SDS011;4574;51.072;17.174;2023-04-22T10:28:09;7.90;;;4.13;;
9076;SDS011;4574;51.072;17.174;2023-04-22T10:30:40;5.20;;;4.00;;
9076;SDS011;4574;51.072;17.174;2023-04-22T10:36:08;4.80;;;3.50;;
9076;SDS011;4574;51.072;17.174;2023-04-22T10:41:51;7.07;;;3.87;;
9076;SDS011;4574;51.072;17.174;2023-04-22T10:44:21;6.17;;;3.57;;
9076;SDS011;4574;51.072;17.174;2023-04-22T10:46:59;8.30;;;3.60;;
9076;SDS011;4574;51.072;17.174;2023-04-22T10:49:32;4.40;;;3.23;;
9076;SDS011;4574;51.072;17.174;2023-04-22T10:52:01;4.03;;;3.07;;
9076;SDS011;4574;51.072;17.174;2023-04-22T10:57:30;5.93;;;3.20;;
9076;SDS011;4574;51.072;17.174;2023-04-22T11:03:23;5.03;;;3.03;;
9076;SDS011;4574;51.072;17.174;2023-04-22T11:06:14;10.00;;;3.73;;
9076;SDS011;4574;51.072;17.174;2023-04-22T11:08:44;5.40;;;3.43;;
9076;SDS011;4574;51.072;17.174;2023-04-22T11:11:15;6.47;;;3.33;;
9076;SDS011;4574;51.072;17.174;2023-04-22T11:13:46;4.10;;;3.40;;
9076;SDS011;4574;51.072;17.174;2023-04-22T11:16:16;7.10;;;3.80;;
9076;SDS011;4574;51.072;17.174;2023-04-22T11:18:48;5.93;;;3.80;;
9076;SDS011;4574;51.072;17.174;2023-04-22T11:21:19;5.43;;;3.33;;
9076;SDS011;4574;51.072;17.174;2023-04-22T11:23:48;6.77;;;3.73;;
9076;SDS011;4574;51.072;17.174;2023-04-22T11:26:30;4.50;;;3.40;;
9076;SDS011;4574;51.072;17.174;2023-04-22T11:29:00;4.70;;;3.30;;
9076;SDS011;4574;51.072;17.174;2023-04-22T11:31:29;5.03;;;3.80;;
9076;SDS011;4574;51.072;17.174;2023-04-22T11:33:58;3.77;;;3.33;;
9076;SDS011;4574;51.072;17.174;2023-04-22T11:36:28;4.47;;;3.37;;
9076;SDS011;4574;51.072;17.174;2023-04-22T11:38:57;3.73;;;3.10;;
9076;SDS011;4574;51.072;17.174;2023-04-22T11:41:26;6.57;;;3.47;;
9076;SDS011;4574;51.072;17.174;2023-04-22T11:43:55;3.97;;;3.30;;
9076;SDS011;4574;51.072;17.174;2023-04-22T11:46:28;7.13;;;4.40;;
9076;SDS011;4574;51.072;17.174;2023-04-22T11:49:10;5.37;;;3.53;;
9076;SDS011;4574;51.072;17.174;2023-04-22T11:51:51;3.77;;;2.93;;
9076;SDS011;4574;51.072;17.174;2023-04-22T11:54:30;4.47;;;2.97;;
9076;SDS011;4574;51.072;17.174;2023-04-22T11:57:00;5.10;;;3.33;;
9076;SDS011;4574;51.072;17.174;2023-04-22T11:59:29;5.23;;;3.00;;
9076;SDS011;4574;51.072;17.174;2023-04-22T12:01:58;6.47;;;3.67;;
9076;SDS011;4574;51.072;17.174;2023-04-22T12:04:27;4.50;;;3.40;;
9076;SDS011;4574;51.072;17.174;2023-04-22T12:06:57;14.23;;;3.17;;
9076;SDS011;4574;51.072;17.174;2023-04-22T12:09:26;3.93;;;3.60;;
9076;SDS011;4574;51.072;17.174;2023-04-22T12:11:55;5.00;;;3.40;;
9076;SDS011;4574;51.072;17.174;2023-04-22T12:14:27;4.80;;;3.10;;
9076;SDS011;4574;51.072;17.174;2023-04-22T12:17:01;4.20;;;2.97;;
9076;SDS011;4574;51.072;17.174;2023-04-22T12:19:31;6.10;;;3.17;;
9076;SDS011;4574;51.072;17.174;2023-04-22T12:22:01;5.73;;;2.97;;
9076;SDS011;4574;51.072;17.174;2023-04-22T12:24:30;7.77;;;3.30;;
9076;SDS011;4574;51.072;17.174;2023-04-22T12:26:58;3.23;;;2.93;;
9076;SDS011;4574;51.072;17.174;2023-04-22T12:29:28;3.37;;;3.03;;
9076;SDS011;4574;51.072;17.174;2023-04-22T12:31:58;3.67;;;3.27;;
9076;SDS011;4574;51.072;17.174;2023-04-22T12:34:28;3.17;;;2.90;;
9076;SDS011;4574;51.072;17.174;2023-04-22T12:36:57;3.23;;;2.53;;
9076;SDS011;4574;51.072;17.174;2023-04-22T12:39:28;4.43;;;2.87;;
9076;SDS011;4574;51.072;17.174;2023-04-22T12:41:58;5.87;;;2.60;;
9076;SDS011;4574;51.072;17.174;2023-04-22T12:44:26;5.00;;;2.90;;
9076;SDS011;4574;51.072;17.174;2023-04-22T12:46:56;4.67;;;2.70;;
9076;SDS011;4574;51.072;17.174;2023-04-22T12:49:25;3.63;;;2.87;;
9076;SDS011;4574;51.072;17.174;2023-04-22T12:51:53;3.20;;;2.70;;
9076;SDS011;4574;51.072;17.174;2023-04-22T12:54:22;3.23;;;2.93;;
9076;SDS011;4574;51.072;17.174;2023-04-22T12:56:52;4.67;;;3.00;;
9076;SDS011;4574;51.072;17.174;2023-04-22T12:59:23;5.03;;;2.83;;
9076;SDS011;4574;51.072;17.174;2023-04-22T13:01:52;2.97;;;2.67;;
9076;SDS011;4574;51.072;17.174;2023-04-22T13:04:21;6.53;;;3.10;;
9076;SDS011;4574;51.072;17.174;2023-04-22T13:06:50;3.87;;;2.50;;
9076;SDS011;4574;51.072;17.174;2023-04-22T13:09:22;4.20;;;2.97;;
9076;SDS011;4574;51.072;17.174;2023-04-22T13:11:54;4.80;;;2.90;;
9076;SDS011;4574;51.072;17.174;2023-04-22T13:14:27;3.60;;;2.80;;
9076;SDS011;4574;51.072;17.174;2023-04-22T13:16:59;5.07;;;3.23;;
9076;SDS011;4574;51.072;17.174;2023-04-22T13:19:30;3.70;;;3.00;;
9076;SDS011;4574;51.072;17.174;2023-04-22T13:22:01;4.93;;;3.00;;
9076;SDS011;4574;51.072;17.174;2023-04-22T13:24:30;4.37;;;2.90;;
9076;SDS011;4574;51.072;17.174;2023-04-22T13:27:00;7.50;;;3.53;;
9076;SDS011;4574;51.072;17.174;2023-04-22T13:29:30;3.40;;;2.83;;
9076;SDS011;4574;51.072;17.174;2023-04-22T13:31:58;4.63;;;2.90;;
9076;SDS011;4574;51.072;17.174;2023-04-22T13:34:27;3.77;;;3.03;;
9076;SDS011;4574;51.072;17.174;2023-04-22T13:36:55;5.90;;;3.30;;
9076;SDS011;4574;51.072;17.174;2023-04-22T13:39:25;3.57;;;2.83;;
9076;SDS011;4574;51.072;17.174;2023-04-22T13:41:55;3.53;;;3.00;;
9076;SDS011;4574;51.072;17.174;2023-04-22T13:44:25;6.83;;;2.93;;
9076;SDS011;4574;51.072;17.174;2023-04-22T13:46:54;4.23;;;2.43;;
9076;SDS011;4574;51.072;17.174;2023-04-22T13:49:23;3.40;;;3.10;;
9076;SDS011;4574;51.072;17.174;2023-04-22T13:51:53;3.93;;;2.97;;
9076;SDS011;4574;51.072;17.174;2023-04-22T13:54:22;5.00;;;2.73;;
9076;SDS011;4574;51.072;17.174;2023-04-22T13:56:51;5.70;;;3.10;;
9076;SDS011;4574;51.072;17.174;2023-04-22T13:59:20;8.33;;;2.97;;
9076;SDS011;4574;51.072;17.174;2023-04-22T14:01:51;6.17;;;3.10;;
9076;SDS011;4574;51.072;17.174;2023-04-22T14:04:19;4.83;;;3.53;;
9076;SDS011;4574;51.072;17.174;2023-04-22T14:06:48;4.07;;;3.27;;
9076;SDS011;4574;51.072;17.174;2023-04-22T14:09:16;3.87;;;3.10;;
9076;SDS011;4574;51.072;17.174;2023-04-22T14:11:45;9.10;;;3.43;;
9076;SDS011;4574;51.072;17.174;2023-04-22T14:14:14;3.67;;;2.70;;
9076;SDS011;4574;51.072;17.174;2023-04-22T14:16:43;4.40;;;3.07;;
9076;SDS011;4574;51.072;17.174;2023-04-22T14:19:13;3.00;;;2.70;;
9076;SDS011;4574;51.072;17.174;2023-04-22T14:21:42;13.83;;;3.10;;
9076;SDS011;4574;51.072;17.174;2023-04-22T14:24:11;4.20;;;2.70;;
9076;SDS011;4574;51.072;17.174;2023-04-22T14:26:40;3.43;;;2.60;;
9076;SDS011;4574;51.072;17.174;2023-04-22T14:29:08;2.80;;;2.40;;
9076;SDS011;4574;51.072;17.174;2023-04-22T14:31:37;3.80;;;2.97;;
9076;SDS011;4574;51.072;17.174;2023-04-22T14:34:06;7.27;;;3.13;;
9076;SDS011;4574;51.072;17.174;2023-04-22T14:36:36;8.80;;;2.70;;
9076;SDS011;4574;51.072;17.174;2023-04-22T14:39:04;4.17;;;2.63;;
9076;SDS011;4574;51.072;17.174;2023-04-22T14:41:33;4.97;;;2.80;;
9076;SDS011;4574;51.072;17.174;2023-04-22T14:44:02;11.30;;;3.50;;
9076;SDS011;4574;51.072;17.174;2023-04-22T14:46:31;6.73;;;3.33;;
9076;SDS011;4574;51.072;17.174;2023-04-22T14:49:00;5.53;;;3.27;;
9076;SDS011;4574;51.072;17.174;2023-04-22T14:51:29;3.40;;;2.70;;
9076;SDS011;4574;51.072;17.174;2023-04-22T14:53:59;4.13;;;2.80;;
9076;SDS011;4574;51.072;17.174;2023-04-22T14:56:28;5.93;;;3.20;;
9076;SDS011;4574;51.072;17.174;2023-04-22T14:58:57;3.53;;;3.20;;
9076;SDS011;4574;51.072;17.174;2023-04-22T15:01:25;6.90;;;2.90;;
9076;SDS011;4574;51.072;17.174;2023-04-22T15:03:57;3.77;;;2.70;;
9076;SDS011;4574;51.072;17.174;2023-04-22T15:06:28;4.60;;;2.83;;
9076;SDS011;4574;51.072;17.174;2023-04-22T15:08:59;3.70;;;3.07;;
9076;SDS011;4574;51.072;17.174;2023-04-22T15:11:31;3.80;;;2.70;;
9076;SDS011;4574;51.072;17.174;2023-04-22T15:14:00;12.43;;;6.47;;
9076;SDS011;4574;51.072;17.174;2023-04-22T15:16:28;10.00;;;7.60;;